sensor_id;sensor_type;location;lat;lon;timestamp;temperature;humidity
19829;DHT22;10075;50.924;4.396;2023-04-25T00:02:01;9.90;99.90
19829;DHT22;10075;50.924;4.396;2023-04-25T00:04:29;9.90;99.90
19829;DHT22;10075;50.924;4.396;2023-04-25T00:07:00;9.80;99.90
19829;DHT22;10075;50.924;4.396;2023-04-25T00:09:28;9.80;99.90
19829;DHT22;10075;50.924;4.396;2023-04-25T00:11:55;9.70;99.90
19829;DHT22;10075;50.924;4.396;2023-04-25T00:14:22;9.70;99.90
19829;DHT22;10075;50.924;4.396;2023-04-25T00:16:49;9.70;99.90
19829;DHT22;10075;50.924;4.396;2023-04-25T00:19:17;9.60;99.90
19829;DHT22;10075;50.924;4.396;2023-04-25T00:21:44;9.60;99.90
19829;DHT22;10075;50.924;4.396;2023-04-25T00:24:13;9.70;99.90
19829;DHT22;10075;50.924;4.396;2023-04-25T00:26:40;9.70;99.90
19829;DHT22;10075;50.924;4.396;2023-04-25T00:29:07;9.70;99.90
19829;DHT22;10075;50.924;4.396;2023-04-25T00:31:34;9.60;99.90
19829;DHT22;10075;50.924;4.396;2023-04-25T00:34:01;9.40;99.90
19829;DHT22;10075;50.924;4.396;2023-04-25T00:36:28;9.40;99.90
19829;DHT22;10075;50.924;4.396;2023-04-25T00:38:55;9.50;99.90
19829;DHT22;10075;50.924;4.396;2023-04-25T00:41:24;9.60;99.90
19829;DHT22;10075;50.924;4.396;2023-04-25T00:43:52;9.70;99.90
19829;DHT22;10075;50.924;4.396;2023-04-25T00:46:20;9.80;99.90
19829;DHT22;10075;50.924;4.396;2023-04-25T00:48:47;9.80;99.90
19829;DHT22;10075;50.924;4.396;2023-04-25T00:51:19;9.80;99.90
19829;DHT22;10075;50.924;4.396;2023-04-25T00:53:48;9.80;99.90
19829;DHT22;10075;50.924;4.396;2023-04-25T00:56:16;9.80;99.90
19829;DHT22;10075;50.924;4.396;2023-04-25T00:58:44;9.80;99.90
19829;DHT22;10075;50.924;4.396;2023-04-25T01:01:11;9.70;99.90
19829;DHT22;10075;50.924;4.396;2023-04-25T01:03:39;9.70;99.90
19829;DHT22;10075;50.924;4.396;2023-04-25T01:06:07;9.60;99.90
19829;DHT22;10075;50.924;4.396;2023-04-25T01:08:35;9.50;99.90
19829;DHT22;10075;50.924;4.396;2023-04-25T01:11:02;9.20;99.90
19829;DHT22;10075;50.924;4.396;2023-04-25T01:13:30;8.90;99.90
19829;DHT22;10075;50.924;4.396;2023-04-25T01:15:59;8.90;99.90
19829;DHT22;10075;50.924;4.396;2023-04-25T01:18:26;8.90;99.90
19829;DHT22;10075;50.924;4.396;2023-04-25T01:20:54;8.90;99.90
19829;DHT22;10075;50.924;4.396;2023-04-25T01:23:23;8.80;99.90
19829;DHT22;10075;50.924;4.396;2023-04-25T01:25:50;8.80;99.90
19829;DHT22;10075;50.924;4.396;2023-04-25T01:28:18;8.80;99.90
19829;DHT22;10075;50.924;4.396;2023-04-25T01:30:46;8.70;99.90
19829;DHT22;10075;50.924;4.396;2023-04-25T01:33:14;8.60;99.90
19829;DHT22;10075;50.924;4.396;2023-04-25T01:35:42;8.70;99.90
19829;DHT22;10075;50.924;4.396;2023-04-25T01:38:09;8.60;99.90
19829;DHT22;10075;50.924;4.396;2023-04-25T01:40:39;8.60;99.90
19829;DHT22;10075;50.924;4.396;2023-04-25T01:43:07;8.60;99.90
19829;DHT22;10075;50.924;4.396;2023-04-25T01:45:36;8.50;99.90
19829;DHT22;10075;50.924;4.396;2023-04-25T01:48:05;8.50;99.90
19829;DHT22;10075;50.924;4.396;2023-04-25T01:50:32;8.50;99.90
19829;DHT22;10075;50.924;4.396;2023-04-25T01:52:59;8.50;99.90
19829;DHT22;10075;50.924;4.396;2023-04-25T01:55:27;8.50;99.90
19829;DHT22;10075;50.924;4.396;2023-04-25T01:57:55;8.50;99.90
19829;DHT22;10075;50.924;4.396;2023-04-25T02:00:23;8.50;99.90
19829;DHT22;10075;50.924;4.396;2023-04-25T02:02:50;8.60;99.90
19829;DHT22;10075;50.924;4.396;2023-04-25T02:05:19;8.60;99.90
19829;DHT22;10075;50.924;4.396;2023-04-25T02:07:46;8.60;99.90
19829;DHT22;10075;50.924;4.396;2023-04-25T02:10:14;8.60;99.90
19829;DHT22;10075;50.924;4.396;2023-04-25T02:12:41;8.70;99.90
19829;DHT22;10075;50.924;4.396;2023-04-25T02:15:10;8.60;99.90
19829;DHT22;10075;50.924;4.396;2023-04-25T02:17:37;8.50;99.90
19829;DHT22;10075;50.924;4.396;2023-04-25T02:20:05;8.50;99.90
19829;DHT22;10075;50.924;4.396;2023-04-25T02:22:33;8.60;99.90
19829;DHT22;10075;50.924;4.396;2023-04-25T02:25:01;8.70;99.90
19829;DHT22;10075;50.924;4.396;2023-04-25T02:27:30;8.70;99.90
19829;DHT22;10075;50.924;4.396;2023-04-25T02:29:57;8.70;99.90
19829;DHT22;10075;50.924;4.396;2023-04-25T02:32:25;8.70;99.90
19829;DHT22;10075;50.924;4.396;2023-04-25T02:34:52;8.70;99.90
19829;DHT22;10075;50.924;4.396;2023-04-25T02:37:20;8.70;99.90
19829;DHT22;10075;50.924;4.396;2023-04-25T02:39:47;8.70;99.90
19829;DHT22;10075;50.924;4.396;2023-04-25T02:42:14;8.70;99.90
19829;DHT22;10075;50.924;4.396;2023-04-25T02:44:41;8.60;99.90
19829;DHT22;10075;50.924;4.396;2023-04-25T02:47:08;8.70;99.90
19829;DHT22;10075;50.924;4.396;2023-04-25T02:49:36;8.70;99.90
19829;DHT22;10075;50.924;4.396;2023-04-25T02:52:03;8.70;99.90
19829;DHT22;10075;50.924;4.396;2023-04-25T02:54:30;8.60;99.90
19829;DHT22;10075;50.924;4.396;2023-04-25T02:56:57;8.60;99.90
19829;DHT22;10075;50.924;4.396;2023-04-25T02:59:24;8.40;99.90
19829;DHT22;10075;50.924;4.396;2023-04-25T03:01:51;8.40;99.90
19829;DHT22;10075;50.924;4.396;2023-04-25T03:04:18;8.40;99.90
19829;DHT22;10075;50.924;4.396;2023-04-25T03:06:47;8.30;99.90
19829;DHT22;10075;50.924;4.396;2023-04-25T03:09:15;8.30;99.90
19829;DHT22;10075;50.924;4.396;2023-04-25T03:11:43;8.30;99.90
19829;DHT22;10075;50.924;4.396;2023-04-25T03:14:10;8.20;99.90
19829;DHT22;10075;50.924;4.396;2023-04-25T03:16:37;8.20;99.90
19829;DHT22;10075;50.924;4.396;2023-04-25T03:19:05;8.00;99.90
19829;DHT22;10075;50.924;4.396;2023-04-25T03:21:33;8.00;99.90
19829;DHT22;10075;50.924;4.396;2023-04-25T03:24:03;8.00;99.90
19829;DHT22;10075;50.924;4.396;2023-04-25T03:26:30;8.10;99.90
19829;DHT22;10075;50.924;4.396;2023-04-25T03:28:57;8.00;99.90
19829;DHT22;10075;50.924;4.396;2023-04-25T03:31:24;7.90;99.90
19829;DHT22;10075;50.924;4.396;2023-04-25T03:33:51;7.90;99.90
19829;DHT22;10075;50.924;4.396;2023-04-25T03:36:18;8.00;99.90
19829;DHT22;10075;50.924;4.396;2023-04-25T03:38:45;7.90;99.90
19829;DHT22;10075;50.924;4.396;2023-04-25T03:41:15;7.90;99.90
19829;DHT22;10075;50.924;4.396;2023-04-25T03:43:42;7.90;99.90
19829;DHT22;10075;50.924;4.396;2023-04-25T03:46:09;8.00;99.90
19829;DHT22;10075;50.924;4.396;2023-04-25T03:48:36;8.00;99.90
19829;DHT22;10075;50.924;4.396;2023-04-25T03:51:03;8.10;99.90
19829;DHT22;10075;50.924;4.396;2023-04-25T03:53:30;8.20;99.90
19829;DHT22;10075;50.924;4.396;2023-04-25T03:55:57;8.30;99.90
19829;DHT22;10075;50.924;4.396;2023-04-25T03:58:25;8.20;99.90
19829;DHT22;10075;50.924;4.396;2023-04-25T04:00:52;8.20;99.90
19829;DHT22;10075;50.924;4.396;2023-04-25T04:03:19;8.20;99.90
19829;DHT22;10075;50.924;4.396;2023-04-25T04:05:46;8.30;99.90
19829;DHT22;10075;50.924;4.396;2023-04-25T04:08:13;8.40;99.90
19829;DHT22;10075;50.924;4.396;2023-04-25T04:10:40;8.40;99.90
19829;DHT22;10075;50.924;4.396;2023-04-25T04:13:07;8.40;99.90
19829;DHT22;10075;50.924;4.396;2023-04-25T04:15:36;8.40;99.90
19829;DHT22;10075;50.924;4.396;2023-04-25T04:18:03;8.40;99.90
19829;DHT22;10075;50.924;4.396;2023-04-25T04:20:30;8.50;99.90
19829;DHT22;10075;50.924;4.396;2023-04-25T04:22:57;8.50;99.90
19829;DHT22;10075;50.924;4.396;2023-04-25T04:25:24;8.60;99.90
19829;DHT22;10075;50.924;4.396;2023-04-25T04:27:51;8.60;99.90
19829;DHT22;10075;50.924;4.396;2023-04-25T04:30:21;8.60;99.90
19829;DHT22;10075;50.924;4.396;2023-04-25T04:32:51;8.70;99.90
19829;DHT22;10075;50.924;4.396;2023-04-25T04:35:18;8.70;99.90
19829;DHT22;10075;50.924;4.396;2023-04-25T04:37:45;8.80;99.90
19829;DHT22;10075;50.924;4.396;2023-04-25T04:40:13;8.90;99.90
19829;DHT22;10075;50.924;4.396;2023-04-25T04:42:42;9.00;99.90
19829;DHT22;10075;50.924;4.396;2023-04-25T04:45:09;8.70;99.90
19829;DHT22;10075;50.924;4.396;2023-04-25T04:47:36;8.50;99.90
19829;DHT22;10075;50.924;4.396;2023-04-25T04:50:07;8.30;99.90
19829;DHT22;10075;50.924;4.396;2023-04-25T04:52:35;8.30;99.90
19829;DHT22;10075;50.924;4.396;2023-04-25T04:55:03;8.30;99.90
19829;DHT22;10075;50.924;4.396;2023-04-25T04:57:31;8.20;99.90
19829;DHT22;10075;50.924;4.396;2023-04-25T04:59:58;8.10;99.90
19829;DHT22;10075;50.924;4.396;2023-04-25T05:02:26;7.90;99.90
19829;DHT22;10075;50.924;4.396;2023-04-25T05:04:53;7.80;99.90
19829;DHT22;10075;50.924;4.396;2023-04-25T05:07:21;7.80;99.90
19829;DHT22;10075;50.924;4.396;2023-04-25T05:09:48;7.70;99.90
19829;DHT22;10075;50.924;4.396;2023-04-25T05:12:15;7.70;99.90
19829;DHT22;10075;50.924;4.396;2023-04-25T05:14:42;7.70;99.90
19829;DHT22;10075;50.924;4.396;2023-04-25T05:17:09;7.70;99.90
19829;DHT22;10075;50.924;4.396;2023-04-25T05:19:36;8.00;99.90
19829;DHT22;10075;50.924;4.396;2023-04-25T05:22:04;8.10;99.90
19829;DHT22;10075;50.924;4.396;2023-04-25T05:24:33;8.20;99.90
19829;DHT22;10075;50.924;4.396;2023-04-25T05:27:00;8.40;99.90
19829;DHT22;10075;50.924;4.396;2023-04-25T05:29:27;8.40;99.90
19829;DHT22;10075;50.924;4.396;2023-04-25T05:31:55;8.40;99.90
19829;DHT22;10075;50.924;4.396;2023-04-25T05:34:22;8.30;99.90
19829;DHT22;10075;50.924;4.396;2023-04-25T05:36:49;8.50;99.90
19829;DHT22;10075;50.924;4.396;2023-04-25T05:39:16;8.60;99.90
19829;DHT22;10075;50.924;4.396;2023-04-25T05:41:44;8.70;99.90
19829;DHT22;10075;50.924;4.396;2023-04-25T05:44:11;8.80;99.90
19829;DHT22;10075;50.924;4.396;2023-04-25T05:46:38;8.90;99.90
19829;DHT22;10075;50.924;4.396;2023-04-25T05:49:05;9.00;99.90
19829;DHT22;10075;50.924;4.396;2023-04-25T05:51:32;9.10;99.90
19829;DHT22;10075;50.924;4.396;2023-04-25T05:53:59;9.20;99.90
19829;DHT22;10075;50.924;4.396;2023-04-25T05:56:26;9.20;99.90
19829;DHT22;10075;50.924;4.396;2023-04-25T05:58:55;9.20;99.90
19829;DHT22;10075;50.924;4.396;2023-04-25T06:01:22;9.40;99.90
19829;DHT22;10075;50.924;4.396;2023-04-25T06:03:49;9.30;99.90
19829;DHT22;10075;50.924;4.396;2023-04-25T06:06:18;9.30;99.90
19829;DHT22;10075;50.924;4.396;2023-04-25T06:08:45;9.10;99.90
19829;DHT22;10075;50.924;4.396;2023-04-25T06:11:12;9.00;99.90
19829;DHT22;10075;50.924;4.396;2023-04-25T06:13:39;9.10;99.90
19829;DHT22;10075;50.924;4.396;2023-04-25T06:16:07;9.30;99.90
19829;DHT22;10075;50.924;4.396;2023-04-25T06:18:35;9.30;99.90
19829;DHT22;10075;50.924;4.396;2023-04-25T06:21:02;9.20;99.90
19829;DHT22;10075;50.924;4.396;2023-04-25T06:23:29;9.30;99.90
19829;DHT22;10075;50.924;4.396;2023-04-25T06:25:56;9.20;99.90
19829;DHT22;10075;50.924;4.396;2023-04-25T06:28:23;9.10;99.90
19829;DHT22;10075;50.924;4.396;2023-04-25T06:30:50;9.40;99.90
19829;DHT22;10075;50.924;4.396;2023-04-25T06:33:18;9.10;99.90
19829;DHT22;10075;50.924;4.396;2023-04-25T06:35:45;9.10;99.90
19829;DHT22;10075;50.924;4.396;2023-04-25T06:38:12;9.00;99.90
19829;DHT22;10075;50.924;4.396;2023-04-25T06:40:39;8.90;99.90
19829;DHT22;10075;50.924;4.396;2023-04-25T06:43:06;8.70;99.90
19829;DHT22;10075;50.924;4.396;2023-04-25T06:45:33;8.60;99.90
19829;DHT22;10075;50.924;4.396;2023-04-25T06:48:00;8.80;99.90
19829;DHT22;10075;50.924;4.396;2023-04-25T06:50:28;8.90;99.90
19829;DHT22;10075;50.924;4.396;2023-04-25T06:52:55;9.00;99.90
19829;DHT22;10075;50.924;4.396;2023-04-25T06:55:22;8.90;99.90
19829;DHT22;10075;50.924;4.396;2023-04-25T06:57:50;8.70;99.90
19829;DHT22;10075;50.924;4.396;2023-04-25T07:00:17;9.00;99.90
19829;DHT22;10075;50.924;4.396;2023-04-25T07:02:44;9.50;99.90
19829;DHT22;10075;50.924;4.396;2023-04-25T07:05:11;9.90;99.90
19829;DHT22;10075;50.924;4.396;2023-04-25T07:07:40;10.10;99.90
19829;DHT22;10075;50.924;4.396;2023-04-25T07:10:07;9.50;99.90
19829;DHT22;10075;50.924;4.396;2023-04-25T07:12:34;9.50;99.90
19829;DHT22;10075;50.924;4.396;2023-04-25T07:15:01;9.40;99.90
19829;DHT22;10075;50.924;4.396;2023-04-25T07:17:32;9.80;99.90
19829;DHT22;10075;50.924;4.396;2023-04-25T07:19:59;10.10;99.90
19829;DHT22;10075;50.924;4.396;2023-04-25T07:22:26;10.40;99.90
19829;DHT22;10075;50.924;4.396;2023-04-25T07:24:55;10.70;99.90
19829;DHT22;10075;50.924;4.396;2023-04-25T07:27:22;10.60;99.90
19829;DHT22;10075;50.924;4.396;2023-04-25T07:29:49;10.40;99.90
19829;DHT22;10075;50.924;4.396;2023-04-25T07:32:16;10.10;99.90
19829;DHT22;10075;50.924;4.396;2023-04-25T07:34:43;10.10;99.90
19829;DHT22;10075;50.924;4.396;2023-04-25T07:37:10;9.60;99.90
19829;DHT22;10075;50.924;4.396;2023-04-25T07:39:37;9.50;99.90
19829;DHT22;10075;50.924;4.396;2023-04-25T07:42:05;10.00;99.90
19829;DHT22;10075;50.924;4.396;2023-04-25T07:44:33;9.90;99.90
19829;DHT22;10075;50.924;4.396;2023-04-25T07:47:04;9.80;99.90
19829;DHT22;10075;50.924;4.396;2023-04-25T07:49:32;9.70;99.90
19829;DHT22;10075;50.924;4.396;2023-04-25T07:52:00;9.50;99.90
19829;DHT22;10075;50.924;4.396;2023-04-25T07:54:27;9.80;99.90
19829;DHT22;10075;50.924;4.396;2023-04-25T07:56:54;10.30;99.90
19829;DHT22;10075;50.924;4.396;2023-04-25T07:59:22;9.80;99.90
19829;DHT22;10075;50.924;4.396;2023-04-25T08:01:49;9.60;99.90
19829;DHT22;10075;50.924;4.396;2023-04-25T08:04:16;9.70;99.90
19829;DHT22;10075;50.924;4.396;2023-04-25T08:06:44;9.60;99.90
19829;DHT22;10075;50.924;4.396;2023-04-25T08:09:11;9.60;99.90
19829;DHT22;10075;50.924;4.396;2023-04-25T08:11:38;9.20;99.90
19829;DHT22;10075;50.924;4.396;2023-04-25T08:14:05;9.20;99.90
19829;DHT22;10075;50.924;4.396;2023-04-25T08:16:33;9.20;99.90
19829;DHT22;10075;50.924;4.396;2023-04-25T08:19:00;9.40;99.90
19829;DHT22;10075;50.924;4.396;2023-04-25T08:21:27;9.70;99.90
19829;DHT22;10075;50.924;4.396;2023-04-25T08:23:55;9.70;99.90
19829;DHT22;10075;50.924;4.396;2023-04-25T08:26:22;10.10;99.90
19829;DHT22;10075;50.924;4.396;2023-04-25T08:28:50;10.70;99.90
19829;DHT22;10075;50.924;4.396;2023-04-25T08:31:17;11.00;99.90
19829;DHT22;10075;50.924;4.396;2023-04-25T08:33:46;11.00;99.90
19829;DHT22;10075;50.924;4.396;2023-04-25T08:36:15;10.90;99.90
19829;DHT22;10075;50.924;4.396;2023-04-25T08:38:43;10.70;99.90
19829;DHT22;10075;50.924;4.396;2023-04-25T08:41:11;10.50;99.90
19829;DHT22;10075;50.924;4.396;2023-04-25T08:43:42;10.30;99.90
19829;DHT22;10075;50.924;4.396;2023-04-25T08:46:11;10.00;99.90
19829;DHT22;10075;50.924;4.396;2023-04-25T08:48:40;10.00;99.90
19829;DHT22;10075;50.924;4.396;2023-04-25T08:51:18;10.00;99.90
19829;DHT22;10075;50.924;4.396;2023-04-25T08:53:49;10.40;99.90
19829;DHT22;10075;50.924;4.396;2023-04-25T08:56:17;11.30;99.90
19829;DHT22;10075;50.924;4.396;2023-04-25T08:58:48;12.10;99.90
19829;DHT22;10075;50.924;4.396;2023-04-25T09:01:15;12.50;99.90
19829;DHT22;10075;50.924;4.396;2023-04-25T09:03:43;11.90;99.90
19829;DHT22;10075;50.924;4.396;2023-04-25T09:06:12;11.60;99.90
19829;DHT22;10075;50.924;4.396;2023-04-25T09:08:39;11.10;99.90
19829;DHT22;10075;50.924;4.396;2023-04-25T09:11:06;10.60;99.90
19829;DHT22;10075;50.924;4.396;2023-04-25T09:13:34;10.30;99.90
19829;DHT22;10075;50.924;4.396;2023-04-25T09:16:00;10.00;99.90
19829;DHT22;10075;50.924;4.396;2023-04-25T09:18:29;10.30;99.90
19829;DHT22;10075;50.924;4.396;2023-04-25T09:20:58;10.50;99.90
19829;DHT22;10075;50.924;4.396;2023-04-25T09:23:39;10.60;99.90
19829;DHT22;10075;50.924;4.396;2023-04-25T09:26:07;10.60;99.90
19829;DHT22;10075;50.924;4.396;2023-04-25T09:28:35;10.80;99.90
19829;DHT22;10075;50.924;4.396;2023-04-25T09:31:03;11.00;99.90
19829;DHT22;10075;50.924;4.396;2023-04-25T09:33:32;10.80;99.90
19829;DHT22;10075;50.924;4.396;2023-04-25T09:36:05;10.80;99.90
19829;DHT22;10075;50.924;4.396;2023-04-25T09:38:41;10.50;99.90
19829;DHT22;10075;50.924;4.396;2023-04-25T09:41:09;10.50;99.90
19829;DHT22;10075;50.924;4.396;2023-04-25T09:43:36;10.70;99.90
19829;DHT22;10075;50.924;4.396;2023-04-25T09:46:08;10.30;99.90
19829;DHT22;10075;50.924;4.396;2023-04-25T09:48:36;10.00;99.90
19829;DHT22;10075;50.924;4.396;2023-04-25T09:51:05;9.90;99.90
19829;DHT22;10075;50.924;4.396;2023-04-25T09:53:34;10.10;99.90
19829;DHT22;10075;50.924;4.396;2023-04-25T09:56:04;10.30;99.90
19829;DHT22;10075;50.924;4.396;2023-04-25T09:58:35;10.40;99.90
19829;DHT22;10075;50.924;4.396;2023-04-25T10:01:04;10.50;99.90
19829;DHT22;10075;50.924;4.396;2023-04-25T10:03:32;10.40;99.90
19829;DHT22;10075;50.924;4.396;2023-04-25T10:06:01;10.40;99.90
19829;DHT22;10075;50.924;4.396;2023-04-25T10:08:31;10.40;99.90
19829;DHT22;10075;50.924;4.396;2023-04-25T10:11:02;10.70;99.90
19829;DHT22;10075;50.924;4.396;2023-04-25T10:13:30;11.10;99.90
19829;DHT22;10075;50.924;4.396;2023-04-25T10:15:58;11.50;99.90
19829;DHT22;10075;50.924;4.396;2023-04-25T10:18:27;11.80;99.90
19829;DHT22;10075;50.924;4.396;2023-04-25T10:20:55;12.30;99.90
19829;DHT22;10075;50.924;4.396;2023-04-25T10:23:23;12.50;99.90
19829;DHT22;10075;50.924;4.396;2023-04-25T10:25:51;12.40;98.60
19829;DHT22;10075;50.924;4.396;2023-04-25T10:28:20;12.30;99.90
19829;DHT22;10075;50.924;4.396;2023-04-25T10:31:01;12.00;99.90
19829;DHT22;10075;50.924;4.396;2023-04-25T10:33:32;11.80;99.90
19829;DHT22;10075;50.924;4.396;2023-04-25T10:36:08;11.60;99.90
19829;DHT22;10075;50.924;4.396;2023-04-25T10:38:36;11.90;99.90
19829;DHT22;10075;50.924;4.396;2023-04-25T10:41:04;12.30;99.90
19829;DHT22;10075;50.924;4.396;2023-04-25T10:43:37;12.20;99.90
19829;DHT22;10075;50.924;4.396;2023-04-25T10:46:15;12.30;99.90
19829;DHT22;10075;50.924;4.396;2023-04-25T10:48:47;12.10;99.90
19829;DHT22;10075;50.924;4.396;2023-04-25T10:51:19;11.60;99.90
19829;DHT22;10075;50.924;4.396;2023-04-25T10:53:48;11.60;99.90
19829;DHT22;10075;50.924;4.396;2023-04-25T10:56:24;11.60;99.90
19829;DHT22;10075;50.924;4.396;2023-04-25T10:59:04;11.00;99.90
19829;DHT22;10075;50.924;4.396;2023-04-25T11:01:36;10.60;99.90
19829;DHT22;10075;50.924;4.396;2023-04-25T11:04:04;10.70;99.90
19829;DHT22;10075;50.924;4.396;2023-04-25T11:06:43;10.70;99.90
19829;DHT22;10075;50.924;4.396;2023-04-25T11:09:13;11.30;99.90
19829;DHT22;10075;50.924;4.396;2023-04-25T11:11:40;10.90;99.90
19829;DHT22;10075;50.924;4.396;2023-04-25T11:14:09;11.10;99.90
19829;DHT22;10075;50.924;4.396;2023-04-25T11:16:36;11.20;99.90
19829;DHT22;10075;50.924;4.396;2023-04-25T11:19:03;11.10;99.90
19829;DHT22;10075;50.924;4.396;2023-04-25T11:21:31;11.60;99.90
19829;DHT22;10075;50.924;4.396;2023-04-25T11:23:59;11.90;99.90
19829;DHT22;10075;50.924;4.396;2023-04-25T11:26:26;11.90;99.90
19829;DHT22;10075;50.924;4.396;2023-04-25T11:28:57;11.50;99.90
19829;DHT22;10075;50.924;4.396;2023-04-25T11:31:26;10.90;99.90
19829;DHT22;10075;50.924;4.396;2023-04-25T11:33:53;10.80;99.90
19829;DHT22;10075;50.924;4.396;2023-04-25T11:36:22;10.70;99.90
19829;DHT22;10075;50.924;4.396;2023-04-25T11:38:51;10.70;99.90
19829;DHT22;10075;50.924;4.396;2023-04-25T11:41:18;11.10;99.90
19829;DHT22;10075;50.924;4.396;2023-04-25T11:43:46;11.30;99.90
19829;DHT22;10075;50.924;4.396;2023-04-25T11:46:13;11.30;99.90
19829;DHT22;10075;50.924;4.396;2023-04-25T11:48:42;11.00;99.90
19829;DHT22;10075;50.924;4.396;2023-04-25T11:51:10;11.60;99.90
19829;DHT22;10075;50.924;4.396;2023-04-25T11:53:40;12.00;99.90
19829;DHT22;10075;50.924;4.396;2023-04-25T11:56:09;12.60;99.90
19829;DHT22;10075;50.924;4.396;2023-04-25T11:58:54;13.20;99.90
19829;DHT22;10075;50.924;4.396;2023-04-25T12:01:29;13.70;99.90
19829;DHT22;10075;50.924;4.396;2023-04-25T12:03:58;14.10;99.90
19829;DHT22;10075;50.924;4.396;2023-04-25T12:06:37;13.40;99.90
19829;DHT22;10075;50.924;4.396;2023-04-25T12:09:07;12.80;99.90
19829;DHT22;10075;50.924;4.396;2023-04-25T12:11:41;11.90;99.90
19829;DHT22;10075;50.924;4.396;2023-04-25T12:14:09;12.10;99.90
19829;DHT22;10075;50.924;4.396;2023-04-25T12:16:43;12.20;99.90
19829;DHT22;10075;50.924;4.396;2023-04-25T12:19:13;11.90;99.90
19829;DHT22;10075;50.924;4.396;2023-04-25T12:21:41;12.30;99.90
19829;DHT22;10075;50.924;4.396;2023-04-25T12:24:12;12.60;99.90
19829;DHT22;10075;50.924;4.396;2023-04-25T12:26:50;12.30;99.90
19829;DHT22;10075;50.924;4.396;2023-04-25T12:29:18;12.50;99.90
19829;DHT22;10075;50.924;4.396;2023-04-25T12:31:45;12.80;99.30
19829;DHT22;10075;50.924;4.396;2023-04-25T12:34:14;13.00;98.90
19829;DHT22;10075;50.924;4.396;2023-04-25T12:36:41;13.00;98.90
19829;DHT22;10075;50.924;4.396;2023-04-25T12:39:08;13.10;98.90
19829;DHT22;10075;50.924;4.396;2023-04-25T12:41:35;12.60;99.50
19829;DHT22;10075;50.924;4.396;2023-04-25T12:44:03;12.40;99.90
19829;DHT22;10075;50.924;4.396;2023-04-25T12:46:30;12.30;99.90
19829;DHT22;10075;50.924;4.396;2023-04-25T12:48:57;12.20;99.90
19829;DHT22;10075;50.924;4.396;2023-04-25T12:51:25;12.10;99.90
19829;DHT22;10075;50.924;4.396;2023-04-25T12:53:53;12.10;99.90
19829;DHT22;10075;50.924;4.396;2023-04-25T12:56:20;12.20;99.90
19829;DHT22;10075;50.924;4.396;2023-04-25T12:58:47;12.50;99.90
19829;DHT22;10075;50.924;4.396;2023-04-25T13:01:14;12.30;99.90
19829;DHT22;10075;50.924;4.396;2023-04-25T13:03:41;12.30;99.90
19829;DHT22;10075;50.924;4.396;2023-04-25T13:06:08;12.50;99.90
19829;DHT22;10075;50.924;4.396;2023-04-25T13:08:37;12.80;99.90
19829;DHT22;10075;50.924;4.396;2023-04-25T13:11:04;12.90;99.90
19829;DHT22;10075;50.924;4.396;2023-04-25T13:13:31;12.70;99.90
19829;DHT22;10075;50.924;4.396;2023-04-25T13:16:00;12.80;99.90
19829;DHT22;10075;50.924;4.396;2023-04-25T13:18:27;12.70;99.90
19829;DHT22;10075;50.924;4.396;2023-04-25T13:20:54;12.60;99.90
19829;DHT22;10075;50.924;4.396;2023-04-25T13:23:22;13.00;99.90
19829;DHT22;10075;50.924;4.396;2023-04-25T13:25:50;13.40;99.90
19829;DHT22;10075;50.924;4.396;2023-04-25T13:28:17;13.20;98.40
19829;DHT22;10075;50.924;4.396;2023-04-25T13:30:45;12.70;99.80
19829;DHT22;10075;50.924;4.396;2023-04-25T13:33:13;13.00;99.50
19829;DHT22;10075;50.924;4.396;2023-04-25T13:35:41;12.40;97.40
19829;DHT22;10075;50.924;4.396;2023-04-25T13:38:08;12.50;99.10
19829;DHT22;10075;50.924;4.396;2023-04-25T13:40:35;12.60;99.90
19829;DHT22;10075;50.924;4.396;2023-04-25T13:43:04;12.50;99.90
19829;DHT22;10075;50.924;4.396;2023-04-25T13:45:32;12.70;99.90
19829;DHT22;10075;50.924;4.396;2023-04-25T13:47:59;13.10;99.90
19829;DHT22;10075;50.924;4.396;2023-04-25T13:50:26;13.10;99.90
19829;DHT22;10075;50.924;4.396;2023-04-25T13:52:53;13.10;99.90
19829;DHT22;10075;50.924;4.396;2023-04-25T13:55:20;13.10;99.90
19829;DHT22;10075;50.924;4.396;2023-04-25T13:57:47;12.70;99.90
19829;DHT22;10075;50.924;4.396;2023-04-25T14:00:16;12.30;99.90
19829;DHT22;10075;50.924;4.396;2023-04-25T14:02:43;11.90;99.90
19829;DHT22;10075;50.924;4.396;2023-04-25T14:05:10;11.90;99.90
19829;DHT22;10075;50.924;4.396;2023-04-25T14:07:38;12.10;99.90
19829;DHT22;10075;50.924;4.396;2023-04-25T14:10:06;12.30;99.80
19829;DHT22;10075;50.924;4.396;2023-04-25T14:12:33;12.20;99.90
19829;DHT22;10075;50.924;4.396;2023-04-25T14:15:00;12.20;99.90
19829;DHT22;10075;50.924;4.396;2023-04-25T14:17:29;11.90;98.80
19829;DHT22;10075;50.924;4.396;2023-04-25T14:19:56;12.00;99.20
19829;DHT22;10075;50.924;4.396;2023-04-25T14:22:23;12.20;99.50
19829;DHT22;10075;50.924;4.396;2023-04-25T14:24:51;12.20;99.90
19829;DHT22;10075;50.924;4.396;2023-04-25T14:27:18;12.00;99.90
19829;DHT22;10075;50.924;4.396;2023-04-25T14:29:45;12.00;99.90
19829;DHT22;10075;50.924;4.396;2023-04-25T14:32:13;11.90;99.90
19829;DHT22;10075;50.924;4.396;2023-04-25T14:34:42;12.30;99.90
19829;DHT22;10075;50.924;4.396;2023-04-25T14:37:09;13.70;99.90
19829;DHT22;10075;50.924;4.396;2023-04-25T14:39:36;15.30;97.40
19829;DHT22;10075;50.924;4.396;2023-04-25T14:42:03;16.20;94.20
19829;DHT22;10075;50.924;4.396;2023-04-25T14:44:30;16.60;93.70
19829;DHT22;10075;50.924;4.396;2023-04-25T14:46:57;15.70;94.60
19829;DHT22;10075;50.924;4.396;2023-04-25T14:49:24;14.70;95.90
19829;DHT22;10075;50.924;4.396;2023-04-25T14:51:55;14.60;96.60
19829;DHT22;10075;50.924;4.396;2023-04-25T14:54:22;15.50;96.30
19829;DHT22;10075;50.924;4.396;2023-04-25T14:56:49;17.40;93.50
19829;DHT22;10075;50.924;4.396;2023-04-25T14:59:16;19.00;90.20
19829;DHT22;10075;50.924;4.396;2023-04-25T15:01:43;17.90;89.20
19829;DHT22;10075;50.924;4.396;2023-04-25T15:04:11;16.90;90.00
19829;DHT22;10075;50.924;4.396;2023-04-25T15:06:38;15.90;91.30
19829;DHT22;10075;50.924;4.396;2023-04-25T15:09:07;15.80;91.80
19829;DHT22;10075;50.924;4.396;2023-04-25T15:11:34;16.60;90.90
19829;DHT22;10075;50.924;4.396;2023-04-25T15:14:01;17.70;89.80
19829;DHT22;10075;50.924;4.396;2023-04-25T15:16:28;19.30;85.30
19829;DHT22;10075;50.924;4.396;2023-04-25T15:18:56;19.20;81.90
19829;DHT22;10075;50.924;4.396;2023-04-25T15:21:23;18.50;83.10
19829;DHT22;10075;50.924;4.396;2023-04-25T15:23:52;18.40;83.10
19829;DHT22;10075;50.924;4.396;2023-04-25T15:26:20;18.20;84.50
19829;DHT22;10075;50.924;4.396;2023-04-25T15:28:47;18.10;82.60
19829;DHT22;10075;50.924;4.396;2023-04-25T15:31:14;17.00;86.10
19829;DHT22;10075;50.924;4.396;2023-04-25T15:33:41;17.70;83.40
19829;DHT22;10075;50.924;4.396;2023-04-25T15:36:08;17.70;82.30
19829;DHT22;10075;50.924;4.396;2023-04-25T15:38:36;18.60;82.90
19829;DHT22;10075;50.924;4.396;2023-04-25T15:41:04;19.20;79.40
19829;DHT22;10075;50.924;4.396;2023-04-25T15:43:33;19.40;80.20